sensor_id;sensor_type;location;lat;lon;timestamp;P1;durP1;ratioP1;P2;durP2;ratioP2
27833;SDS011;15200;50.570;7.244;2023-02-18T00:00:21;1.02;;;0.60;;
27833;SDS011;15200;50.570;7.244;2023-02-18T00:02:48;0.50;;;0.50;;
27833;SDS011;15200;50.570;7.244;2023-02-18T00:05:16;0.60;;;0.60;;
27833;SDS011;15200;50.570;7.244;2023-02-18T00:07:43;0.40;;;0.40;;
27833;SDS011;15200;50.570;7.244;2023-02-18T00:10:11;0.75;;;0.62;;
27833;SDS011;15200;50.570;7.244;2023-02-18T00:12:42;0.55;;;0.55;;
27833;SDS011;15200;50.570;7.244;2023-02-18T00:15:09;0.93;;;0.60;;
27833;SDS011;15200;50.570;7.244;2023-02-18T00:17:36;0.98;;;0.42;;
27833;SDS011;15200;50.570;7.244;2023-02-18T00:20:04;1.92;;;0.40;;
27833;SDS011;15200;50.570;7.244;2023-02-18T00:22:32;0.75;;;0.47;;
27833;SDS011;15200;50.570;7.244;2023-02-18T00:24:59;0.50;;;0.45;;
27833;SDS011;15200;50.570;7.244;2023-02-18T00:27:26;0.30;;;0.30;;
27833;SDS011;15200;50.570;7.244;2023-02-18T00:29:53;0.50;;;0.50;;
27833;SDS011;15200;50.570;7.244;2023-02-18T00:32:21;1.12;;;0.40;;
27833;SDS011;15200;50.570;7.244;2023-02-18T00:34:48;1.20;;;0.40;;
27833;SDS011;15200;50.570;7.244;2023-02-18T00:37:15;1.52;;;0.40;;
27833;SDS011;15200;50.570;7.244;2023-02-18T00:39:43;1.92;;;0.70;;
27833;SDS011;15200;50.570;7.244;2023-02-18T00:42:10;0.68;;;0.42;;
27833;SDS011;15200;50.570;7.244;2023-02-18T00:44:40;0.85;;;0.50;;
27833;SDS011;15200;50.570;7.244;2023-02-18T00:47:06;1.15;;;0.40;;
27833;SDS011;15200;50.570;7.244;2023-02-18T00:49:34;0.47;;;0.47;;
27833;SDS011;15200;50.570;7.244;2023-02-18T00:52:01;0.30;;;0.30;;
27833;SDS011;15200;50.570;7.244;2023-02-18T00:54:28;0.62;;;0.23;;
27833;SDS011;15200;50.570;7.244;2023-02-18T00:56:56;0.42;;;0.40;;
27833;SDS011;15200;50.570;7.244;2023-02-18T00:59:23;0.60;;;0.40;;
27833;SDS011;15200;50.570;7.244;2023-02-18T01:01:50;0.30;;;0.30;;
27833;SDS011;15200;50.570;7.244;2023-02-18T01:04:18;2.75;;;0.53;;
27833;SDS011;15200;50.570;7.244;2023-02-18T01:06:45;0.25;;;0.25;;
27833;SDS011;15200;50.570;7.244;2023-02-18T01:09:12;0.70;;;0.50;;
27833;SDS011;15200;50.570;7.244;2023-02-18T01:11:40;0.62;;;0.50;;
27833;SDS011;15200;50.570;7.244;2023-02-18T01:14:07;1.07;;;0.70;;
27833;SDS011;15200;50.570;7.244;2023-02-18T01:16:34;3.92;;;0.57;;
27833;SDS011;15200;50.570;7.244;2023-02-18T01:19:01;2.20;;;0.50;;
27833;SDS011;15200;50.570;7.244;2023-02-18T01:21:29;1.77;;;0.60;;
27833;SDS011;15200;50.570;7.244;2023-02-18T01:23:56;0.40;;;0.40;;
27833;SDS011;15200;50.570;7.244;2023-02-18T01:26:24;0.88;;;0.70;;
27833;SDS011;15200;50.570;7.244;2023-02-18T01:28:51;2.55;;;0.50;;
27833;SDS011;15200;50.570;7.244;2023-02-18T01:31:19;0.80;;;0.50;;
27833;SDS011;15200;50.570;7.244;2023-02-18T01:33:46;0.33;;;0.33;;
27833;SDS011;15200;50.570;7.244;2023-02-18T01:36:13;2.70;;;0.75;;
27833;SDS011;15200;50.570;7.244;2023-02-18T01:38:41;2.05;;;0.65;;
27833;SDS011;15200;50.570;7.244;2023-02-18T01:41:08;0.93;;;0.62;;
27833;SDS011;15200;50.570;7.244;2023-02-18T01:43:36;0.57;;;0.50;;
27833;SDS011;15200;50.570;7.244;2023-02-18T01:46:13;0.72;;;0.60;;
27833;SDS011;15200;50.570;7.244;2023-02-18T01:48:42;1.62;;;0.70;;
27833;SDS011;15200;50.570;7.244;2023-02-18T01:51:26;2.20;;;0.72;;
27833;SDS011;15200;50.570;7.244;2023-02-18T01:53:50;4.00;;;0.90;;
27833;SDS011;15200;50.570;7.244;2023-02-18T01:56:19;1.02;;;0.50;;
27833;SDS011;15200;50.570;7.244;2023-02-18T01:58:45;1.65;;;0.72;;
27833;SDS011;15200;50.570;7.244;2023-02-18T02:01:14;0.78;;;0.50;;
27833;SDS011;15200;50.570;7.244;2023-02-18T02:03:41;1.70;;;0.60;;
27833;SDS011;15200;50.570;7.244;2023-02-18T02:06:15;0.85;;;0.60;;
27833;SDS011;15200;50.570;7.244;2023-02-18T02:08:37;1.17;;;0.70;;
27833;SDS011;15200;50.570;7.244;2023-02-18T02:11:11;0.88;;;0.68;;
27833;SDS011;15200;50.570;7.244;2023-02-18T02:13:50;1.12;;;0.75;;
27833;SDS011;15200;50.570;7.244;2023-02-18T02:16:25;1.65;;;0.40;;
27833;SDS011;15200;50.570;7.244;2023-02-18T02:18:57;0.78;;;0.50;;
27833;SDS011;15200;50.570;7.244;2023-02-18T02:37:02;0.60;;;0.42;;
27833;SDS011;15200;50.570;7.244;2023-02-18T02:39:30;0.95;;;0.60;;
27833;SDS011;15200;50.570;7.244;2023-02-18T02:44:43;2.67;;;0.95;;
27833;SDS011;15200;50.570;7.244;2023-02-18T02:47:16;0.60;;;0.42;;
27833;SDS011;15200;50.570;7.244;2023-02-18T02:52:25;0.40;;;0.40;;
27833;SDS011;15200;50.570;7.244;2023-02-18T02:54:52;0.50;;;0.45;;
27833;SDS011;15200;50.570;7.244;2023-02-18T02:59:50;0.65;;;0.50;;
27833;SDS011;15200;50.570;7.244;2023-02-18T03:04:58;1.57;;;0.50;;
27833;SDS011;15200;50.570;7.244;2023-02-18T03:12:26;0.95;;;0.62;;
27833;SDS011;15200;50.570;7.244;2023-02-18T03:17:24;1.62;;;0.80;;
27833;SDS011;15200;50.570;7.244;2023-02-18T03:19:56;0.85;;;0.50;;
27833;SDS011;15200;50.570;7.244;2023-02-18T03:22:29;0.40;;;0.40;;
27833;SDS011;15200;50.570;7.244;2023-02-18T03:24:57;1.80;;;0.80;;
27833;SDS011;15200;50.570;7.244;2023-02-18T03:27:29;2.25;;;0.60;;
27833;SDS011;15200;50.570;7.244;2023-02-18T03:30:03;0.33;;;0.33;;
27833;SDS011;15200;50.570;7.244;2023-02-18T03:32:29;0.37;;;0.30;;
27833;SDS011;15200;50.570;7.244;2023-02-18T03:34:59;0.23;;;0.23;;
27833;SDS011;15200;50.570;7.244;2023-02-18T03:37:27;0.28;;;0.28;;
27833;SDS011;15200;50.570;7.244;2023-02-18T03:39:56;0.42;;;0.25;;
27833;SDS011;15200;50.570;7.244;2023-02-18T03:42:25;0.50;;;0.20;;
27833;SDS011;15200;50.570;7.244;2023-02-18T03:44:53;0.50;;;0.20;;
27833;SDS011;15200;50.570;7.244;2023-02-18T03:47:20;0.28;;;0.20;;
27833;SDS011;15200;50.570;7.244;2023-02-18T03:49:47;0.20;;;0.20;;
27833;SDS011;15200;50.570;7.244;2023-02-18T03:52:15;0.30;;;0.20;;
27833;SDS011;15200;50.570;7.244;2023-02-18T03:54:42;0.20;;;0.20;;
27833;SDS011;15200;50.570;7.244;2023-02-18T03:57:09;0.30;;;0.25;;
27833;SDS011;15200;50.570;7.244;2023-02-18T03:59:37;0.30;;;0.17;;
27833;SDS011;15200;50.570;7.244;2023-02-18T04:02:04;0.55;;;0.33;;
27833;SDS011;15200;50.570;7.244;2023-02-18T04:04:31;0.23;;;0.20;;
27833;SDS011;15200;50.570;7.244;2023-02-18T04:06:58;0.13;;;0.13;;
27833;SDS011;15200;50.570;7.244;2023-02-18T04:09:26;0.35;;;0.20;;
27833;SDS011;15200;50.570;7.244;2023-02-18T04:11:53;0.85;;;0.20;;
27833;SDS011;15200;50.570;7.244;2023-02-18T04:14:20;0.75;;;0.10;;
27833;SDS011;15200;50.570;7.244;2023-02-18T04:16:48;0.13;;;0.13;;
27833;SDS011;15200;50.570;7.244;2023-02-18T04:19:15;0.10;;;0.10;;
27833;SDS011;15200;50.570;7.244;2023-02-18T04:21:42;0.10;;;0.10;;
27833;SDS011;15200;50.570;7.244;2023-02-18T04:24:10;0.35;;;0.17;;
27833;SDS011;15200;50.570;7.244;2023-02-18T04:26:37;0.53;;;0.20;;
27833;SDS011;15200;50.570;7.244;2023-02-18T04:29:04;0.10;;;0.10;;
27833;SDS011;15200;50.570;7.244;2023-02-18T04:31:32;0.10;;;0.10;;
27833;SDS011;15200;50.570;7.244;2023-02-18T04:33:59;0.10;;;0.10;;
27833;SDS011;15200;50.570;7.244;2023-02-18T04:36:26;0.10;;;0.10;;
27833;SDS011;15200;50.570;7.244;2023-02-18T04:38:53;0.10;;;0.10;;
27833;SDS011;15200;50.570;7.244;2023-02-18T04:41:21;0.17;;;0.10;;
27833;SDS011;15200;50.570;7.244;2023-02-18T04:43:48;0.13;;;0.10;;
27833;SDS011;15200;50.570;7.244;2023-02-18T04:46:15;0.10;;;0.10;;
27833;SDS011;15200;50.570;7.244;2023-02-18T04:48:43;0.10;;;0.10;;
27833;SDS011;15200;50.570;7.244;2023-02-18T04:51:10;0.10;;;0.10;;
27833;SDS011;15200;50.570;7.244;2023-02-18T04:53:37;0.00;;;0.00;;
27833;SDS011;15200;50.570;7.244;2023-02-18T04:56:05;0.10;;;0.10;;
27833;SDS011;15200;50.570;7.244;2023-02-18T04:58:32;0.10;;;0.10;;
27833;SDS011;15200;50.570;7.244;2023-02-18T05:01:00;0.10;;;0.10;;
27833;SDS011;15200;50.570;7.244;2023-02-18T05:03:30;3.30;;;0.62;;
27833;SDS011;15200;50.570;7.244;2023-02-18T05:05:57;0.10;;;0.10;;
27833;SDS011;15200;50.570;7.244;2023-02-18T05:08:24;0.20;;;0.20;;
27833;SDS011;15200;50.570;7.244;2023-02-18T05:10:52;0.10;;;0.10;;
27833;SDS011;15200;50.570;7.244;2023-02-18T05:13:19;0.10;;;0.10;;
27833;SDS011;15200;50.570;7.244;2023-02-18T05:15:48;0.10;;;0.10;;
27833;SDS011;15200;50.570;7.244;2023-02-18T05:18:15;0.10;;;0.10;;
27833;SDS011;15200;50.570;7.244;2023-02-18T05:20:43;0.10;;;0.10;;
27833;SDS011;15200;50.570;7.244;2023-02-18T05:23:10;0.00;;;0.00;;
27833;SDS011;15200;50.570;7.244;2023-02-18T05:25:37;0.10;;;0.10;;
27833;SDS011;15200;50.570;7.244;2023-02-18T05:28:04;0.10;;;0.10;;
27833;SDS011;15200;50.570;7.244;2023-02-18T05:30:32;0.10;;;0.10;;
27833;SDS011;15200;50.570;7.244;2023-02-18T05:32:59;0.10;;;0.10;;
27833;SDS011;15200;50.570;7.244;2023-02-18T05:35:26;0.10;;;0.10;;
27833;SDS011;15200;50.570;7.244;2023-02-18T05:37:54;0.15;;;0.10;;
27833;SDS011;15200;50.570;7.244;2023-02-18T05:40:21;0.10;;;0.10;;
27833;SDS011;15200;50.570;7.244;2023-02-18T05:42:48;0.10;;;0.10;;
27833;SDS011;15200;50.570;7.244;2023-02-18T05:45:16;1.45;;;0.10;;
27833;SDS011;15200;50.570;7.244;2023-02-18T05:47:43;0.10;;;0.10;;
27833;SDS011;15200;50.570;7.244;2023-02-18T05:50:10;0.05;;;0.05;;
27833;SDS011;15200;50.570;7.244;2023-02-18T05:52:38;0.23;;;0.13;;
27833;SDS011;15200;50.570;7.244;2023-02-18T05:55:05;0.33;;;0.10;;
27833;SDS011;15200;50.570;7.244;2023-02-18T05:57:32;0.10;;;0.10;;
27833;SDS011;15200;50.570;7.244;2023-02-18T06:00:00;0.10;;;0.10;;
27833;SDS011;15200;50.570;7.244;2023-02-18T06:02:27;0.10;;;0.10;;
27833;SDS011;15200;50.570;7.244;2023-02-18T06:04:54;0.10;;;0.10;;
27833;SDS011;15200;50.570;7.244;2023-02-18T06:07:22;0.75;;;0.20;;
27833;SDS011;15200;50.570;7.244;2023-02-18T06:09:49;0.10;;;0.10;;
27833;SDS011;15200;50.570;7.244;2023-02-18T06:12:16;0.10;;;0.10;;
27833;SDS011;15200;50.570;7.244;2023-02-18T06:14:44;0.10;;;0.10;;
27833;SDS011;15200;50.570;7.244;2023-02-18T06:17:11;0.10;;;0.10;;
27833;SDS011;15200;50.570;7.244;2023-02-18T06:19:39;0.10;;;0.10;;
27833;SDS011;15200;50.570;7.244;2023-02-18T06:22:07;0.10;;;0.10;;
27833;SDS011;15200;50.570;7.244;2023-02-18T06:24:35;0.10;;;0.10;;
27833;SDS011;15200;50.570;7.244;2023-02-18T06:27:02;0.10;;;0.10;;
27833;SDS011;15200;50.570;7.244;2023-02-18T06:29:30;0.20;;;0.20;;
27833;SDS011;15200;50.570;7.244;2023-02-18T06:31:58;0.10;;;0.10;;
27833;SDS011;15200;50.570;7.244;2023-02-18T06:34:25;0.30;;;0.10;;
27833;SDS011;15200;50.570;7.244;2023-02-18T06:36:53;0.10;;;0.10;;
27833;SDS011;15200;50.570;7.244;2023-02-18T06:39:20;0.80;;;0.10;;
27833;SDS011;15200;50.570;7.244;2023-02-18T06:41:47;0.10;;;0.10;;
27833;SDS011;15200;50.570;7.244;2023-02-18T06:44:15;0.10;;;0.10;;
27833;SDS011;15200;50.570;7.244;2023-02-18T06:46:42;0.10;;;0.10;;
27833;SDS011;15200;50.570;7.244;2023-02-18T06:49:10;0.20;;;0.10;;
27833;SDS011;15200;50.570;7.244;2023-02-18T06:51:37;0.20;;;0.20;;
27833;SDS011;15200;50.570;7.244;2023-02-18T06:54:04;0.10;;;0.10;;
27833;SDS011;15200;50.570;7.244;2023-02-18T06:56:32;0.10;;;0.10;;
27833;SDS011;15200;50.570;7.244;2023-02-18T06:58:59;0.53;;;0.20;;
27833;SDS011;15200;50.570;7.244;2023-02-18T07:01:26;0.17;;;0.10;;
27833;SDS011;15200;50.570;7.244;2023-02-18T07:03:54;0.42;;;0.30;;
27833;SDS011;15200;50.570;7.244;2023-02-18T07:06:21;0.15;;;0.13;;
27833;SDS011;15200;50.570;7.244;2023-02-18T07:08:48;0.10;;;0.10;;
27833;SDS011;15200;50.570;7.244;2023-02-18T07:11:16;0.10;;;0.10;;
27833;SDS011;15200;50.570;7.244;2023-02-18T07:13:43;0.10;;;0.10;;
27833;SDS011;15200;50.570;7.244;2023-02-18T07:16:10;0.10;;;0.10;;
27833;SDS011;15200;50.570;7.244;2023-02-18T07:18:37;0.10;;;0.10;;
27833;SDS011;15200;50.570;7.244;2023-02-18T07:21:05;0.10;;;0.10;;
27833;SDS011;15200;50.570;7.244;2023-02-18T07:23:32;0.10;;;0.10;;
27833;SDS011;15200;50.570;7.244;2023-02-18T07:26:17;0.30;;;0.10;;
27833;SDS011;15200;50.570;7.244;2023-02-18T07:28:31;2.72;;;0.13;;
27833;SDS011;15200;50.570;7.244;2023-02-18T07:30:58;0.13;;;0.13;;
27833;SDS011;15200;50.570;7.244;2023-02-18T07:33:26;0.10;;;0.10;;
27833;SDS011;15200;50.570;7.244;2023-02-18T07:35:54;0.10;;;0.10;;
27833;SDS011;15200;50.570;7.244;2023-02-18T07:38:21;0.10;;;0.10;;
27833;SDS011;15200;50.570;7.244;2023-02-18T07:40:49;0.10;;;0.10;;
27833;SDS011;15200;50.570;7.244;2023-02-18T07:43:17;0.10;;;0.10;;
27833;SDS011;15200;50.570;7.244;2023-02-18T07:45:44;0.10;;;0.10;;
27833;SDS011;15200;50.570;7.244;2023-02-18T07:48:11;0.17;;;0.10;;
27833;SDS011;15200;50.570;7.244;2023-02-18T07:50:39;0.17;;;0.17;;
27833;SDS011;15200;50.570;7.244;2023-02-18T07:53:07;0.10;;;0.10;;
27833;SDS011;15200;50.570;7.244;2023-02-18T07:55:35;2.72;;;0.20;;
27833;SDS011;15200;50.570;7.244;2023-02-18T07:58:21;0.20;;;0.20;;
27833;SDS011;15200;50.570;7.244;2023-02-18T08:00:49;0.62;;;0.40;;
27833;SDS011;15200;50.570;7.244;2023-02-18T08:03:16;0.45;;;0.20;;
27833;SDS011;15200;50.570;7.244;2023-02-18T08:05:44;0.20;;;0.20;;
27833;SDS011;15200;50.570;7.244;2023-02-18T08:08:16;0.10;;;0.10;;
27833;SDS011;15200;50.570;7.244;2023-02-18T08:10:45;0.10;;;0.10;;
27833;SDS011;15200;50.570;7.244;2023-02-18T08:13:13;0.10;;;0.10;;
27833;SDS011;15200;50.570;7.244;2023-02-18T08:15:40;0.20;;;0.20;;
27833;SDS011;15200;50.570;7.244;2023-02-18T08:18:09;0.25;;;0.20;;
27833;SDS011;15200;50.570;7.244;2023-02-18T08:20:37;0.10;;;0.10;;
27833;SDS011;15200;50.570;7.244;2023-02-18T08:23:04;0.45;;;0.10;;
27833;SDS011;15200;50.570;7.244;2023-02-18T08:25:32;0.35;;;0.20;;
27833;SDS011;15200;50.570;7.244;2023-02-18T08:27:59;0.20;;;0.10;;
27833;SDS011;15200;50.570;7.244;2023-02-18T08:30:26;0.10;;;0.10;;
27833;SDS011;15200;50.570;7.244;2023-02-18T08:32:54;0.10;;;0.10;;
27833;SDS011;15200;50.570;7.244;2023-02-18T08:35:21;0.20;;;0.20;;
27833;SDS011;15200;50.570;7.244;2023-02-18T08:37:48;0.47;;;0.17;;
27833;SDS011;15200;50.570;7.244;2023-02-18T08:40:16;0.28;;;0.20;;
27833;SDS011;15200;50.570;7.244;2023-02-18T08:42:43;0.10;;;0.10;;
27833;SDS011;15200;50.570;7.244;2023-02-18T08:45:10;0.20;;;0.20;;
27833;SDS011;15200;50.570;7.244;2023-02-18T08:47:38;0.62;;;0.30;;
27833;SDS011;15200;50.570;7.244;2023-02-18T08:50:05;0.50;;;0.13;;
27833;SDS011;15200;50.570;7.244;2023-02-18T08:52:32;0.10;;;0.10;;
27833;SDS011;15200;50.570;7.244;2023-02-18T08:55:00;0.10;;;0.10;;
27833;SDS011;15200;50.570;7.244;2023-02-18T08:57:27;0.60;;;0.40;;
27833;SDS011;15200;50.570;7.244;2023-02-18T08:59:54;0.90;;;0.30;;
27833;SDS011;15200;50.570;7.244;2023-02-18T09:02:22;2.42;;;0.20;;
27833;SDS011;15200;50.570;7.244;2023-02-18T09:04:49;0.42;;;0.20;;
27833;SDS011;15200;50.570;7.244;2023-02-18T09:07:17;0.20;;;0.20;;
27833;SDS011;15200;50.570;7.244;2023-02-18T09:09:44;0.10;;;0.10;;
27833;SDS011;15200;50.570;7.244;2023-02-18T09:12:12;0.10;;;0.10;;
27833;SDS011;15200;50.570;7.244;2023-02-18T09:14:39;0.30;;;0.30;;
27833;SDS011;15200;50.570;7.244;2023-02-18T09:17:06;2.80;;;0.70;;
27833;SDS011;15200;50.570;7.244;2023-02-18T09:19:33;1.82;;;0.47;;
27833;SDS011;15200;50.570;7.244;2023-02-18T09:22:01;1.85;;;0.80;;
27833;SDS011;15200;50.570;7.244;2023-02-18T09:24:28;4.37;;;0.60;;
27833;SDS011;15200;50.570;7.244;2023-02-18T09:26:55;2.30;;;0.70;;
27833;SDS011;15200;50.570;7.244;2023-02-18T09:29:23;3.58;;;0.80;;
27833;SDS011;15200;50.570;7.244;2023-02-18T09:31:50;2.90;;;0.70;;
27833;SDS011;15200;50.570;7.244;2023-02-18T09:34:17;4.80;;;0.40;;
27833;SDS011;15200;50.570;7.244;2023-02-18T09:36:45;0.95;;;0.70;;
27833;SDS011;15200;50.570;7.244;2023-02-18T09:39:12;1.95;;;0.70;;
27833;SDS011;15200;50.570;7.244;2023-02-18T09:44:20;7.15;;;1.02;;
27833;SDS011;15200;50.570;7.244;2023-02-18T09:46:52;2.45;;;0.90;;
27833;SDS011;15200;50.570;7.244;2023-02-18T09:49:17;3.15;;;0.70;;
27833;SDS011;15200;50.570;7.244;2023-02-18T09:51:45;5.47;;;0.75;;
27833;SDS011;15200;50.570;7.244;2023-02-18T09:54:14;2.22;;;0.72;;
27833;SDS011;15200;50.570;7.244;2023-02-18T09:56:42;1.75;;;0.50;;
27833;SDS011;15200;50.570;7.244;2023-02-18T09:59:16;2.15;;;0.72;;
27833;SDS011;15200;50.570;7.244;2023-02-18T10:01:45;1.35;;;0.40;;
27833;SDS011;15200;50.570;7.244;2023-02-18T10:04:14;3.35;;;0.57;;
27833;SDS011;15200;50.570;7.244;2023-02-18T10:06:42;1.55;;;0.50;;
27833;SDS011;15200;50.570;7.244;2023-02-18T10:09:56;1.02;;;0.60;;
27833;SDS011;15200;50.570;7.244;2023-02-18T10:11:40;2.72;;;0.80;;
27833;SDS011;15200;50.570;7.244;2023-02-18T10:14:08;0.95;;;0.47;;
27833;SDS011;15200;50.570;7.244;2023-02-18T10:16:36;0.93;;;0.60;;
27833;SDS011;15200;50.570;7.244;2023-02-18T10:19:50;4.05;;;0.50;;
27833;SDS011;15200;50.570;7.244;2023-02-18T10:21:33;1.17;;;0.55;;
27833;SDS011;15200;50.570;7.244;2023-02-18T10:26:49;2.83;;;0.60;;
27833;SDS011;15200;50.570;7.244;2023-02-18T10:29:17;2.62;;;0.53;;
27833;SDS011;15200;50.570;7.244;2023-02-18T10:31:48;3.27;;;0.68;;
27833;SDS011;15200;50.570;7.244;2023-02-18T10:36:55;2.85;;;0.70;;
27833;SDS011;15200;50.570;7.244;2023-02-18T10:39:26;1.67;;;0.60;;
27833;SDS011;15200;50.570;7.244;2023-02-18T10:49:47;4.60;;;0.88;;
27833;SDS011;15200;50.570;7.244;2023-02-18T10:52:05;1.32;;;0.50;;
27833;SDS011;15200;50.570;7.244;2023-02-18T10:54:52;3.92;;;0.78;;
27833;SDS011;15200;50.570;7.244;2023-02-18T10:57:20;2.70;;;0.60;;
27833;SDS011;15200;50.570;7.244;2023-02-18T11:00:01;2.42;;;0.95;;
27833;SDS011;15200;50.570;7.244;2023-02-18T11:02:30;3.95;;;0.72;;
27833;SDS011;15200;50.570;7.244;2023-02-18T11:04:58;2.37;;;0.70;;
27833;SDS011;15200;50.570;7.244;2023-02-18T11:07:33;3.95;;;1.00;;
27833;SDS011;15200;50.570;7.244;2023-02-18T11:10:06;1.07;;;0.60;;
27833;SDS011;15200;50.570;7.244;2023-02-18T11:12:38;2.58;;;0.80;;
27833;SDS011;15200;50.570;7.244;2023-02-18T11:15:18;2.02;;;0.80;;
27833;SDS011;15200;50.570;7.244;2023-02-18T11:17:31;2.15;;;0.50;;
27833;SDS011;15200;50.570;7.244;2023-02-18T11:19:59;1.95;;;0.72;;
27833;SDS011;15200;50.570;7.244;2023-02-18T11:22:29;0.50;;;0.50;;
27833;SDS011;15200;50.570;7.244;2023-02-18T11:24:58;2.45;;;0.68;;
27833;SDS011;15200;50.570;7.244;2023-02-18T11:27:30;2.15;;;1.22;;
27833;SDS011;15200;50.570;7.244;2023-02-18T11:30:02;1.52;;;0.70;;
27833;SDS011;15200;50.570;7.244;2023-02-18T11:32:28;2.75;;;0.45;;
27833;SDS011;15200;50.570;7.244;2023-02-18T11:34:56;1.27;;;0.55;;
27833;SDS011;15200;50.570;7.244;2023-02-18T11:37:24;3.15;;;0.78;;
27833;SDS011;15200;50.570;7.244;2023-02-18T11:39:52;0.93;;;0.40;;
27833;SDS011;15200;50.570;7.244;2023-02-18T11:42:21;0.90;;;0.50;;
27833;SDS011;15200;50.570;7.244;2023-02-18T11:44:59;0.82;;;0.50;;
27833;SDS011;15200;50.570;7.244;2023-02-18T11:47:25;1.72;;;0.60;;
27833;SDS011;15200;50.570;7.244;2023-02-18T11:52:37;1.80;;;0.78;;
27833;SDS011;15200;50.570;7.244;2023-02-18T11:55:13;2.05;;;0.70;;
27833;SDS011;15200;50.570;7.244;2023-02-18T11:57:41;2.58;;;0.85;;
27833;SDS011;15200;50.570;7.244;2023-02-18T12:00:19;1.35;;;0.80;;
27833;SDS011;15200;50.570;7.244;2023-02-18T12:02:45;2.30;;;1.05;;
27833;SDS011;15200;50.570;7.244;2023-02-18T12:05:15;4.15;;;0.95;;
27833;SDS011;15200;50.570;7.244;2023-02-18T12:07:49;3.42;;;0.70;;
27833;SDS011;15200;50.570;7.244;2023-02-18T12:10:27;1.55;;;0.70;;
27833;SDS011;15200;50.570;7.244;2023-02-18T12:12:57;2.87;;;0.98;;
27833;SDS011;15200;50.570;7.244;2023-02-18T12:15:32;1.10;;;0.70;;
27833;SDS011;15200;50.570;7.244;2023-02-18T12:20:53;1.57;;;0.72;;
27833;SDS011;15200;50.570;7.244;2023-02-18T12:23:31;1.20;;;0.65;;
27833;SDS011;15200;50.570;7.244;2023-02-18T12:26:06;1.40;;;0.80;;
27833;SDS011;15200;50.570;7.244;2023-02-18T12:31:05;3.20;;;0.70;;
27833;SDS011;15200;50.570;7.244;2023-02-18T12:33:38;0.88;;;0.70;;
27833;SDS011;15200;50.570;7.244;2023-02-18T12:41:29;0.85;;;0.57;;
27833;SDS011;15200;50.570;7.244;2023-02-18T12:46:39;2.95;;;0.60;;
27833;SDS011;15200;50.570;7.244;2023-02-18T12:51:37;1.37;;;0.40;;
27833;SDS011;15200;50.570;7.244;2023-02-18T12:54:12;0.30;;;0.30;;
27833;SDS011;15200;50.570;7.244;2023-02-18T12:56:45;0.30;;;0.30;;
27833;SDS011;15200;50.570;7.244;2023-02-18T13:07:11;1.02;;;0.50;;
27833;SDS011;15200;50.570;7.244;2023-02-18T13:09:42;0.40;;;0.30;;
27833;SDS011;15200;50.570;7.244;2023-02-18T13:12:12;0.45;;;0.30;;
27833;SDS011;15200;50.570;7.244;2023-02-18T13:14:43;2.22;;;0.60;;
27833;SDS011;15200;50.570;7.244;2023-02-18T13:17:07;0.70;;;0.50;;
27833;SDS011;15200;50.570;7.244;2023-02-18T13:19:40;0.53;;;0.33;;
27833;SDS011;15200;50.570;7.244;2023-02-18T13:22:04;1.60;;;0.42;;
27833;SDS011;15200;50.570;7.244;2023-02-18T13:24:36;0.62;;;0.30;;
27833;SDS011;15200;50.570;7.244;2023-02-18T13:32:32;3.30;;;0.50;;
27833;SDS011;15200;50.570;7.244;2023-02-18T13:35:02;0.33;;;0.33;;
27833;SDS011;15200;50.570;7.244;2023-02-18T13:38:15;0.42;;;0.30;;
27833;SDS011;15200;50.570;7.244;2023-02-18T13:40:00;0.30;;;0.30;;
27833;SDS011;15200;50.570;7.244;2023-02-18T13:45:03;0.30;;;0.30;;
27833;SDS011;15200;50.570;7.244;2023-02-18T13:55:57;2.35;;;0.53;;
27833;SDS011;15200;50.570;7.244;2023-02-18T13:58:28;0.62;;;0.50;;
27833;SDS011;15200;50.570;7.244;2023-02-18T14:00:54;0.82;;;0.30;;
27833;SDS011;15200;50.570;7.244;2023-02-18T14:03:33;1.85;;;0.30;;
27833;SDS011;15200;50.570;7.244;2023-02-18T14:06:04;0.45;;;0.35;;
27833;SDS011;15200;50.570;7.244;2023-02-18T14:08:32;1.30;;;0.47;;
27833;SDS011;15200;50.570;7.244;2023-02-18T14:16:09;1.32;;;0.55;;
27833;SDS011;15200;50.570;7.244;2023-02-18T14:24:00;0.47;;;0.28;;
27833;SDS011;15200;50.570;7.244;2023-02-18T14:28:48;2.87;;;0.45;;
27833;SDS011;15200;50.570;7.244;2023-02-18T14:34:16;0.47;;;0.20;;
27833;SDS011;15200;50.570;7.244;2023-02-18T14:39:23;0.60;;;0.30;;
27833;SDS011;15200;50.570;7.244;2023-02-18T14:42:02;0.30;;;0.20;;
27833;SDS011;15200;50.570;7.244;2023-02-18T14:47:35;0.65;;;0.40;;
27833;SDS011;15200;50.570;7.244;2023-02-18T14:49:40;0.75;;;0.35;;
27833;SDS011;15200;50.570;7.244;2023-02-18T14:54:48;0.95;;;0.35;;
27833;SDS011;15200;50.570;7.244;2023-02-18T14:57:16;0.20;;;0.20;;
27833;SDS011;15200;50.570;7.244;2023-02-18T14:59:45;0.30;;;0.20;;
27833;SDS011;15200;50.570;7.244;2023-02-18T15:02:23;0.28;;;0.28;;
27833;SDS011;15200;50.570;7.244;2023-02-18T15:04:41;2.70;;;0.33;;
27833;SDS011;15200;50.570;7.244;2023-02-18T15:07:11;0.90;;;0.40;;
27833;SDS011;15200;50.570;7.244;2023-02-18T15:09:45;0.40;;;0.30;;
27833;SDS011;15200;50.570;7.244;2023-02-18T15:12:14;0.30;;;0.30;;
27833;SDS011;15200;50.570;7.244;2023-02-18T15:14:42;0.80;;;0.40;;
27833;SDS011;15200;50.570;7.244;2023-02-18T15:17:12;0.55;;;0.40;;
27833;SDS011;15200;50.570;7.244;2023-02-18T15:19:40;1.45;;;0.50;;
27833;SDS011;15200;50.570;7.244;2023-02-18T15:22:17;0.30;;;0.30;;
27833;SDS011;15200;50.570;7.244;2023-02-18T15:24:36;0.70;;;0.40;;
27833;SDS011;15200;50.570;7.244;2023-02-18T15:27:13;0.53;;;0.30;;
27833;SDS011;15200;50.570;7.244;2023-02-18T15:29:33;1.45;;;0.40;;
27833;SDS011;15200;50.570;7.244;2023-02-18T15:32:01;0.30;;;0.30;;
27833;SDS011;15200;50.570;7.244;2023-02-18T15:34:36;0.47;;;0.30;;
27833;SDS011;15200;50.570;7.244;2023-02-18T15:37:06;0.42;;;0.30;;
27833;SDS011;15200;50.570;7.244;2023-02-18T15:39:33;0.40;;;0.30;;
27833;SDS011;15200;50.570;7.244;2023-02-18T15:42:24;1.55;;;0.30;;
27833;SDS011;15200;50.570;7.244;2023-02-18T15:44:34;0.17;;;0.10;;
27833;SDS011;15200;50.570;7.244;2023-02-18T15:47:07;0.40;;;0.40;;
27833;SDS011;15200;50.570;7.244;2023-02-18T15:49:32;0.62;;;0.40;;
27833;SDS011;15200;50.570;7.244;2023-02-18T15:52:01;1.15;;;0.42;;
27833;SDS011;15200;50.570;7.244;2023-02-18T15:54:29;0.42;;;0.23;;
27833;SDS011;15200;50.570;7.244;2023-02-18T15:56:59;0.55;;;0.40;;
27833;SDS011;15200;50.570;7.244;2023-02-18T15:59:30;0.23;;;0.23;;
27833;SDS011;15200;50.570;7.244;2023-02-18T16:04:39;0.45;;;0.13;;
27833;SDS011;15200;50.570;7.244;2023-02-18T16:07:20;0.42;;;0.42;;
27833;SDS011;15200;50.570;7.244;2023-02-18T16:09:45;0.65;;;0.30;;
27833;SDS011;15200;50.570;7.244;2023-02-18T16:12:18;0.20;;;0.20;;
27833;SDS011;15200;50.570;7.244;2023-02-18T16:14:45;0.10;;;0.10;;
27833;SDS011;15200;50.570;7.244;2023-02-18T16:17:24;0.30;;;0.30;;
27833;SDS011;15200;50.570;7.244;2023-02-18T16:19:54;0.42;;;0.20;;
27833;SDS011;15200;50.570;7.244;2023-02-18T16:27:36;0.40;;;0.30;;
27833;SDS011;15200;50.570;7.244;2023-02-18T16:30:14;0.20;;;0.20;;
27833;SDS011;15200;50.570;7.244;2023-02-18T16:32:42;1.95;;;0.40;;
27833;SDS011;15200;50.570;7.244;2023-02-18T16:35:10;1.85;;;0.62;;
27833;SDS011;15200;50.570;7.244;2023-02-18T16:37:38;1.85;;;0.40;;
27833;SDS011;15200;50.570;7.244;2023-02-18T16:40:20;2.65;;;0.60;;
27833;SDS011;15200;50.570;7.244;2023-02-18T16:42:34;0.20;;;0.20;;
27833;SDS011;15200;50.570;7.244;2023-02-18T16:45:02;0.40;;;0.40;;
27833;SDS011;15200;50.570;7.244;2023-02-18T16:47:31;0.98;;;0.30;;
27833;SDS011;15200;50.570;7.244;2023-02-18T16:50:00;1.05;;;0.40;;
27833;SDS011;15200;50.570;7.244;2023-02-18T16:52:27;0.80;;;0.25;;
27833;SDS011;15200;50.570;7.244;2023-02-18T16:54:55;0.30;;;0.30;;
27833;SDS011;15200;50.570;7.244;2023-02-18T16:57:22;2.50;;;0.40;;
27833;SDS011;15200;50.570;7.244;2023-02-18T16:59:49;0.78;;;0.50;;